sensor_id;sensor_type;location;lat;lon;timestamp;pressure;altitude;pressure_sealevel;temperature;humidity
23164;BME280;31429;42.674;23.350;2023-08-21T00:00:03;95111.47;;;23.36;100.00
23164;BME280;31429;42.674;23.350;2023-08-21T00:01:04;95117.97;;;23.21;100.00
23164;BME280;31429;42.674;23.350;2023-08-21T00:02:05;95119.94;;;23.29;100.00
23164;BME280;31429;42.674;23.350;2023-08-21T00:03:06;95112.81;;;23.31;100.00
23164;BME280;31429;42.674;23.350;2023-08-21T00:04:26;95109.66;;;23.16;100.00
23164;BME280;31429;42.674;23.350;2023-08-21T00:05:27;95123.06;;;23.23;100.00
23164;BME280;31429;42.674;23.350;2023-08-21T00:06:28;95110.66;;;23.36;100.00
23164;BME280;31429;42.674;23.350;2023-08-21T00:07:28;95115.16;;;23.45;100.00
23164;BME280;31429;42.674;23.350;2023-08-21T00:08:30;95111.78;;;23.54;100.00
23164;BME280;31429;42.674;23.350;2023-08-21T00:09:31;95113.00;;;23.71;100.00
23164;BME280;31429;42.674;23.350;2023-08-21T00:10:32;95110.31;;;23.82;100.00
23164;BME280;31429;42.674;23.350;2023-08-21T00:11:52;95104.97;;;23.63;99.36
23164;BME280;31429;42.674;23.350;2023-08-21T00:12:53;95112.22;;;23.59;99.18
23164;BME280;31429;42.674;23.350;2023-08-21T00:13:54;95110.78;;;23.66;98.52
23164;BME280;31429;42.674;23.350;2023-08-21T00:14:54;95110.75;;;23.45;100.00
23164;BME280;31429;42.674;23.350;2023-08-21T00:15:55;95117.97;;;23.21;100.00
23164;BME280;31429;42.674;23.350;2023-08-21T00:16:56;95117.75;;;23.13;100.00
23164;BME280;31429;42.674;23.350;2023-08-21T00:17:57;95106.25;;;23.16;100.00
23164;BME280;31429;42.674;23.350;2023-08-21T00:18:57;95115.56;;;23.29;100.00
23164;BME280;31429;42.674;23.350;2023-08-21T00:19:58;95105.13;;;22.98;100.00
23164;BME280;31429;42.674;23.350;2023-08-21T00:20:59;95117.84;;;22.80;100.00
23164;BME280;31429;42.674;23.350;2023-08-21T00:22:00;95112.75;;;22.89;100.00
23164;BME280;31429;42.674;23.350;2023-08-21T00:23:01;95110.16;;;22.89;100.00
23164;BME280;31429;42.674;23.350;2023-08-21T00:24:03;95111.97;;;22.67;100.00
23164;BME280;31429;42.674;23.350;2023-08-21T00:25:04;95111.13;;;22.77;100.00
23164;BME280;31429;42.674;23.350;2023-08-21T00:26:05;95103.03;;;23.23;100.00
23164;BME280;31429;42.674;23.350;2023-08-21T00:27:05;95097.97;;;23.42;100.00
23164;BME280;31429;42.674;23.350;2023-08-21T00:28:06;95110.84;;;23.55;100.00
23164;BME280;31429;42.674;23.350;2023-08-21T00:29:07;95114.09;;;23.16;100.00
23164;BME280;31429;42.674;23.350;2023-08-21T00:30:08;95107.19;;;22.83;100.00
23164;BME280;31429;42.674;23.350;2023-08-21T00:31:09;95108.31;;;23.01;100.00
23164;BME280;31429;42.674;23.350;2023-08-21T00:32:10;95108.56;;;22.98;100.00
23164;BME280;31429;42.674;23.350;2023-08-21T00:33:31;95116.41;;;23.19;100.00
23164;BME280;31429;42.674;23.350;2023-08-21T00:34:51;95115.34;;;22.89;100.00
23164;BME280;31429;42.674;23.350;2023-08-21T00:35:52;95110.97;;;22.90;100.00
23164;BME280;31429;42.674;23.350;2023-08-21T00:36:53;95115.72;;;23.17;100.00
23164;BME280;31429;42.674;23.350;2023-08-21T00:37:53;95113.41;;;23.34;100.00
23164;BME280;31429;42.674;23.350;2023-08-21T00:38:54;95110.66;;;23.15;100.00
23164;BME280;31429;42.674;23.350;2023-08-21T00:39:56;95108.38;;;22.90;100.00
23164;BME280;31429;42.674;23.350;2023-08-21T00:40:57;95113.50;;;23.12;100.00
23164;BME280;31429;42.674;23.350;2023-08-21T00:41:58;95122.44;;;22.99;100.00
23164;BME280;31429;42.674;23.350;2023-08-21T00:42:58;95119.16;;;22.85;100.00
23164;BME280;31429;42.674;23.350;2023-08-21T00:43:59;95118.56;;;22.93;100.00
23164;BME280;31429;42.674;23.350;2023-08-21T00:45:00;95124.00;;;22.79;100.00
23164;BME280;31429;42.674;23.350;2023-08-21T00:46:01;95121.16;;;22.82;100.00
23164;BME280;31429;42.674;23.350;2023-08-21T00:47:03;95117.44;;;23.07;100.00
23164;BME280;31429;42.674;23.350;2023-08-21T00:48:04;95115.91;;;23.25;100.00
23164;BME280;31429;42.674;23.350;2023-08-21T00:49:05;95116.22;;;23.42;100.00
23164;BME280;31429;42.674;23.350;2023-08-21T00:50:07;95115.97;;;23.45;100.00
23164;BME280;31429;42.674;23.350;2023-08-21T00:51:28;95117.34;;;23.29;100.00
23164;BME280;31429;42.674;23.350;2023-08-21T00:53:08;95119.56;;;23.33;100.00
23164;BME280;31429;42.674;23.350;2023-08-21T00:54:09;95122.03;;;23.46;100.00
23164;BME280;31429;42.674;23.350;2023-08-21T00:55:31;95124.97;;;23.21;100.00
23164;BME280;31429;42.674;23.350;2023-08-21T00:56:32;95123.09;;;23.12;100.00
23164;BME280;31429;42.674;23.350;2023-08-21T00:57:34;95122.50;;;23.08;100.00
23164;BME280;31429;42.674;23.350;2023-08-21T00:58:36;95124.81;;;22.90;100.00
23164;BME280;31429;42.674;23.350;2023-08-21T00:59:36;95115.19;;;23.02;100.00
23164;BME280;31429;42.674;23.350;2023-08-21T01:00:37;95123.16;;;23.53;100.00
23164;BME280;31429;42.674;23.350;2023-08-21T01:01:38;95120.91;;;23.80;99.12
23164;BME280;31429;42.674;23.350;2023-08-21T01:02:40;95123.69;;;23.68;95.85
23164;BME280;31429;42.674;23.350;2023-08-21T01:03:40;95115.81;;;23.58;95.94
23164;BME280;31429;42.674;23.350;2023-08-21T01:04:41;95120.06;;;23.59;95.70
23164;BME280;31429;42.674;23.350;2023-08-21T01:05:42;95118.97;;;23.41;96.51
23164;BME280;31429;42.674;23.350;2023-08-21T01:06:43;95116.84;;;23.67;96.00
23164;BME280;31429;42.674;23.350;2023-08-21T01:07:52;95120.81;;;23.71;96.38
23164;BME280;31429;42.674;23.350;2023-08-21T01:08:57;95117.88;;;23.64;94.99
23164;BME280;31429;42.674;23.350;2023-08-21T01:10:03;95120.13;;;23.69;95.20
23164;BME280;31429;42.674;23.350;2023-08-21T01:11:15;95121.84;;;23.79;95.17
23164;BME280;31429;42.674;23.350;2023-08-21T01:12:23;95127.06;;;23.59;95.11
23164;BME280;31429;42.674;23.350;2023-08-21T01:13:54;95128.59;;;22.98;100.00
23164;BME280;31429;42.674;23.350;2023-08-21T01:14:59;95127.66;;;22.87;100.00
23164;BME280;31429;42.674;23.350;2023-08-21T01:16:02;95117.19;;;22.56;100.00
23164;BME280;31429;42.674;23.350;2023-08-21T01:17:04;95124.41;;;22.52;100.00
23164;BME280;31429;42.674;23.350;2023-08-21T01:18:07;95123.88;;;22.92;100.00
23164;BME280;31429;42.674;23.350;2023-08-21T01:19:17;95126.50;;;23.23;100.00
23164;BME280;31429;42.674;23.350;2023-08-21T01:20:20;95120.06;;;23.27;99.80
23164;BME280;31429;42.674;23.350;2023-08-21T01:21:21;95122.41;;;23.62;98.94
23164;BME280;31429;42.674;23.350;2023-08-21T01:22:25;95126.09;;;23.39;100.00
23164;BME280;31429;42.674;23.350;2023-08-21T01:23:34;95122.38;;;23.21;100.00
23164;BME280;31429;42.674;23.350;2023-08-21T01:24:35;95127.69;;;23.19;100.00
23164;BME280;31429;42.674;23.350;2023-08-21T01:25:35;95123.88;;;23.23;100.00
23164;BME280;31429;42.674;23.350;2023-08-21T01:26:38;95127.06;;;22.95;100.00
23164;BME280;31429;42.674;23.350;2023-08-21T01:27:41;95124.13;;;22.88;100.00
23164;BME280;31429;42.674;23.350;2023-08-21T01:28:41;95127.84;;;22.75;100.00
23164;BME280;31429;42.674;23.350;2023-08-21T01:29:43;95129.66;;;23.06;100.00
23164;BME280;31429;42.674;23.350;2023-08-21T01:30:44;95129.47;;;23.19;100.00
23164;BME280;31429;42.674;23.350;2023-08-21T01:31:48;95127.66;;;22.87;100.00
23164;BME280;31429;42.674;23.350;2023-08-21T01:32:57;95128.53;;;22.55;100.00
23164;BME280;31429;42.674;23.350;2023-08-21T01:34:04;95122.72;;;22.51;100.00
23164;BME280;31429;42.674;23.350;2023-08-21T01:35:07;95131.50;;;22.72;100.00
23164;BME280;31429;42.674;23.350;2023-08-21T01:36:10;95124.94;;;22.89;100.00
23164;BME280;31429;42.674;23.350;2023-08-21T01:37:11;95124.88;;;22.68;100.00
23164;BME280;31429;42.674;23.350;2023-08-21T01:38:12;95128.31;;;22.47;100.00
23164;BME280;31429;42.674;23.350;2023-08-21T01:39:14;95127.84;;;22.53;100.00
23164;BME280;31429;42.674;23.350;2023-08-21T01:40:35;95129.59;;;22.74;100.00
23164;BME280;31429;42.674;23.350;2023-08-21T01:41:36;95128.91;;;22.61;100.00
23164;BME280;31429;42.674;23.350;2023-08-21T01:42:36;95129.41;;;22.33;100.00
23164;BME280;31429;42.674;23.350;2023-08-21T01:43:37;95132.59;;;22.14;100.00
23164;BME280;31429;42.674;23.350;2023-08-21T01:44:38;95132.34;;;22.06;100.00
23164;BME280;31429;42.674;23.350;2023-08-21T01:45:38;95136.97;;;22.14;100.00
23164;BME280;31429;42.674;23.350;2023-08-21T01:46:39;95129.97;;;22.59;100.00
23164;BME280;31429;42.674;23.350;2023-08-21T01:47:40;95124.75;;;22.81;100.00
23164;BME280;31429;42.674;23.350;2023-08-21T01:48:41;95128.91;;;22.72;100.00
23164;BME280;31429;42.674;23.350;2023-08-21T01:49:41;95127.94;;;22.51;100.00
23164;BME280;31429;42.674;23.350;2023-08-21T01:50:42;95120.84;;;22.42;100.00
23164;BME280;31429;42.674;23.350;2023-08-21T01:51:43;95130.81;;;22.37;100.00
23164;BME280;31429;42.674;23.350;2023-08-21T01:52:43;95134.63;;;22.33;100.00
23164;BME280;31429;42.674;23.350;2023-08-21T01:53:44;95127.00;;;22.52;100.00
23164;BME280;31429;42.674;23.350;2023-08-21T01:54:47;95118.44;;;22.83;100.00
23164;BME280;31429;42.674;23.350;2023-08-21T01:55:48;95130.03;;;22.90;100.00
23164;BME280;31429;42.674;23.350;2023-08-21T01:56:49;95127.66;;;22.87;100.00
23164;BME280;31429;42.674;23.350;2023-08-21T01:57:49;95129.38;;;22.55;100.00
23164;BME280;31429;42.674;23.350;2023-08-21T01:58:50;95123.69;;;22.72;100.00
23164;BME280;31429;42.674;23.350;2023-08-21T01:59:51;95121.25;;;22.92;100.00
23164;BME280;31429;42.674;23.350;2023-08-21T02:00:51;95125.06;;;23.19;100.00
23164;BME280;31429;42.674;23.350;2023-08-21T02:01:52;95121.66;;;23.71;100.00
23164;BME280;31429;42.674;23.350;2023-08-21T02:02:54;95120.56;;;23.94;98.23
23164;BME280;31429;42.674;23.350;2023-08-21T02:03:54;95120.69;;;24.14;96.36
23164;BME280;31429;42.674;23.350;2023-08-21T02:04:55;95119.66;;;24.05;97.60
23164;BME280;31429;42.674;23.350;2023-08-21T02:05:56;95121.00;;;23.99;96.41
23164;BME280;31429;42.674;23.350;2023-08-21T02:07:17;95119.75;;;23.73;96.67
23164;BME280;31429;42.674;23.350;2023-08-21T02:08:18;95121.66;;;23.51;98.31
23164;BME280;31429;42.674;23.350;2023-08-21T02:09:18;95116.72;;;23.05;100.00
23164;BME280;31429;42.674;23.350;2023-08-21T02:10:20;95121.31;;;22.69;100.00
23164;BME280;31429;42.674;23.350;2023-08-21T02:11:21;95119.81;;;22.45;100.00
23164;BME280;31429;42.674;23.350;2023-08-21T02:12:22;95128.34;;;22.36;100.00
23164;BME280;31429;42.674;23.350;2023-08-21T02:13:23;95120.59;;;22.56;100.00
23164;BME280;31429;42.674;23.350;2023-08-21T02:14:23;95125.25;;;23.07;100.00
23164;BME280;31429;42.674;23.350;2023-08-21T02:15:24;95125.06;;;22.87;100.00
23164;BME280;31429;42.674;23.350;2023-08-21T02:16:25;95117.88;;;22.58;100.00
23164;BME280;31429;42.674;23.350;2023-08-21T02:17:26;95121.84;;;22.95;100.00
23164;BME280;31429;42.674;23.350;2023-08-21T02:18:26;95126.31;;;22.72;100.00
23164;BME280;31429;42.674;23.350;2023-08-21T02:19:27;95126.53;;;22.69;100.00
23164;BME280;31429;42.674;23.350;2023-08-21T02:20:28;95124.25;;;23.19;100.00
23164;BME280;31429;42.674;23.350;2023-08-21T02:21:28;95116.81;;;23.14;100.00
23164;BME280;31429;42.674;23.350;2023-08-21T02:22:29;95122.47;;;22.76;100.00
23164;BME280;31429;42.674;23.350;2023-08-21T02:23:30;95116.94;;;22.70;100.00
23164;BME280;31429;42.674;23.350;2023-08-21T02:24:30;95126.06;;;22.31;100.00
23164;BME280;31429;42.674;23.350;2023-08-21T02:25:33;95119.94;;;21.99;100.00
23164;BME280;31429;42.674;23.350;2023-08-21T02:26:33;95121.31;;;21.92;100.00
23164;BME280;31429;42.674;23.350;2023-08-21T02:27:34;95126.38;;;21.82;100.00
23164;BME280;31429;42.674;23.350;2023-08-21T02:28:34;95120.09;;;21.73;100.00
23164;BME280;31429;42.674;23.350;2023-08-21T02:29:35;95116.78;;;21.83;100.00
23164;BME280;31429;42.674;23.350;2023-08-21T02:30:56;95116.59;;;22.41;100.00
23164;BME280;31429;42.674;23.350;2023-08-21T02:31:56;95121.69;;;22.09;100.00
23164;BME280;31429;42.674;23.350;2023-08-21T02:32:57;95108.97;;;21.71;100.00
23164;BME280;31429;42.674;23.350;2023-08-21T02:33:58;95119.34;;;21.60;100.00
23164;BME280;31429;42.674;23.350;2023-08-21T02:34:59;95116.03;;;22.04;100.00
23164;BME280;31429;42.674;23.350;2023-08-21T02:35:59;95112.09;;;22.65;100.00
23164;BME280;31429;42.674;23.350;2023-08-21T02:37:01;95119.09;;;22.31;100.00
23164;BME280;31429;42.674;23.350;2023-08-21T02:38:03;95115.78;;;21.96;100.00
23164;BME280;31429;42.674;23.350;2023-08-21T02:39:04;95118.06;;;21.77;100.00
23164;BME280;31429;42.674;23.350;2023-08-21T02:40:06;95127.50;;;22.02;100.00
23164;BME280;31429;42.674;23.350;2023-08-21T02:41:11;95120.84;;;22.42;100.00
23164;BME280;31429;42.674;23.350;2023-08-21T02:42:12;95126.66;;;22.12;100.00
23164;BME280;31429;42.674;23.350;2023-08-21T02:43:13;95124.28;;;21.87;100.00
23164;BME280;31429;42.674;23.350;2023-08-21T02:44:14;95122.75;;;21.96;100.00
23164;BME280;31429;42.674;23.350;2023-08-21T02:45:14;95115.66;;;22.31;100.00
23164;BME280;31429;42.674;23.350;2023-08-21T02:46:15;95120.94;;;22.63;100.00
23164;BME280;31429;42.674;23.350;2023-08-21T02:47:17;95119.31;;;22.73;100.00
23164;BME280;31429;42.674;23.350;2023-08-21T02:48:17;95117.78;;;22.26;100.00
23164;BME280;31429;42.674;23.350;2023-08-21T02:49:18;95116.13;;;22.03;100.00
23164;BME280;31429;42.674;23.350;2023-08-21T02:50:19;95123.34;;;22.55;100.00
23164;BME280;31429;42.674;23.350;2023-08-21T02:51:19;95125.47;;;22.61;100.00
23164;BME280;31429;42.674;23.350;2023-08-21T02:52:20;95126.31;;;22.28;100.00
23164;BME280;31429;42.674;23.350;2023-08-21T02:53:21;95126.91;;;21.98;100.00
23164;BME280;31429;42.674;23.350;2023-08-21T02:54:22;95125.00;;;21.89;100.00
23164;BME280;31429;42.674;23.350;2023-08-21T02:55:22;95119.19;;;21.97;100.00
23164;BME280;31429;42.674;23.350;2023-08-21T02:56:24;95126.06;;;22.31;100.00
23164;BME280;31429;42.674;23.350;2023-08-21T02:57:25;95126.22;;;22.18;100.00
23164;BME280;31429;42.674;23.350;2023-08-21T02:58:46;95123.31;;;21.88;100.00
23164;BME280;31429;42.674;23.350;2023-08-21T02:59:47;95123.66;;;21.84;100.00
23164;BME280;31429;42.674;23.350;2023-08-21T03:00:47;95121.69;;;22.31;100.00
23164;BME280;31429;42.674;23.350;2023-08-21T03:01:48;95122.84;;;22.61;100.00
23164;BME280;31429;42.674;23.350;2023-08-21T03:02:49;95127.13;;;22.73;100.00
23164;BME280;31429;42.674;23.350;2023-08-21T03:04:09;95121.16;;;22.82;100.00
23164;BME280;31429;42.674;23.350;2023-08-21T03:05:10;95126.56;;;22.36;100.00
23164;BME280;31429;42.674;23.350;2023-08-21T03:06:11;95125.47;;;21.94;100.00
23164;BME280;31429;42.674;23.350;2023-08-21T03:07:12;95117.13;;;21.67;100.00
23164;BME280;31429;42.674;23.350;2023-08-21T03:08:13;95123.28;;;21.77;100.00
23164;BME280;31429;42.674;23.350;2023-08-21T03:09:14;95129.16;;;22.14;100.00
23164;BME280;31429;42.674;23.350;2023-08-21T03:10:14;95128.44;;;22.23;100.00
23164;BME280;31429;42.674;23.350;2023-08-21T03:11:15;95125.13;;;21.99;100.00
23164;BME280;31429;42.674;23.350;2023-08-21T03:12:17;95135.25;;;21.80;100.00
23164;BME280;31429;42.674;23.350;2023-08-21T03:13:18;95134.97;;;21.60;100.00
23164;BME280;31429;42.674;23.350;2023-08-21T03:14:19;95134.44;;;21.44;100.00
23164;BME280;31429;42.674;23.350;2023-08-21T03:15:19;95129.31;;;21.32;100.00
23164;BME280;31429;42.674;23.350;2023-08-21T03:16:20;95129.47;;;21.41;100.00
23164;BME280;31429;42.674;23.350;2023-08-21T03:17:20;95136.06;;;21.80;100.00
23164;BME280;31429;42.674;23.350;2023-08-21T03:18:21;95128.31;;;21.91;100.00
23164;BME280;31429;42.674;23.350;2023-08-21T03:19:22;95140.88;;;22.19;100.00
23164;BME280;31429;42.674;23.350;2023-08-21T03:20:23;95141.69;;;22.42;100.00
23164;BME280;31429;42.674;23.350;2023-08-21T03:21:24;95138.63;;;22.26;100.00
23164;BME280;31429;42.674;23.350;2023-08-21T03:22:24;95135.56;;;21.99;100.00
23164;BME280;31429;42.674;23.350;2023-08-21T03:23:25;95147.44;;;21.79;100.00
23164;BME280;31429;42.674;23.350;2023-08-21T03:24:26;95135.34;;;21.67;100.00
23164;BME280;31429;42.674;23.350;2023-08-21T03:25:28;95136.50;;;21.63;100.00
23164;BME280;31429;42.674;23.350;2023-08-21T03:26:29;95144.91;;;21.32;100.00
23164;BME280;31429;42.674;23.350;2023-08-21T03:27:31;95140.88;;;21.16;100.00
23164;BME280;31429;42.674;23.350;2023-08-21T03:28:31;95140.25;;;21.13;100.00
23164;BME280;31429;42.674;23.350;2023-08-21T03:29:32;95142.06;;;21.24;100.00
23164;BME280;31429;42.674;23.350;2023-08-21T03:30:33;95139.94;;;21.29;100.00
23164;BME280;31429;42.674;23.350;2023-08-21T03:31:33;95144.06;;;21.90;100.00
23164;BME280;31429;42.674;23.350;2023-08-21T03:32:34;95137.31;;;22.31;100.00
23164;BME280;31429;42.674;23.350;2023-08-21T03:33:35;95141.59;;;22.10;100.00
23164;BME280;31429;42.674;23.350;2023-08-21T03:34:35;95142.22;;;21.79;100.00
23164;BME280;31429;42.674;23.350;2023-08-21T03:35:39;95148.44;;;21.65;100.00
23164;BME280;31429;42.674;23.350;2023-08-21T03:36:39;95145.47;;;21.48;100.00
23164;BME280;31429;42.674;23.350;2023-08-21T03:37:40;95140.28;;;21.24;100.00
23164;BME280;31429;42.674;23.350;2023-08-21T03:38:41;95146.19;;;21.02;100.00
23164;BME280;31429;42.674;23.350;2023-08-21T03:39:43;95145.16;;;21.05;100.00
23164;BME280;31429;42.674;23.350;2023-08-21T03:40:43;95144.63;;;21.12;100.00
23164;BME280;31429;42.674;23.350;2023-08-21T03:41:44;95136.09;;;21.34;100.00
23164;BME280;31429;42.674;23.350;2023-08-21T03:42:46;95140.97;;;21.50;100.00
23164;BME280;31429;42.674;23.350;2023-08-21T03:44:07;95137.00;;;21.57;100.00
23164;BME280;31429;42.674;23.350;2023-08-21T03:45:08;95137.47;;;21.62;100.00
23164;BME280;31429;42.674;23.350;2023-08-21T03:46:11;95138.13;;;21.18;100.00
23164;BME280;31429;42.674;23.350;2023-08-21T03:47:12;95142.28;;;20.97;100.00
23164;BME280;31429;42.674;23.350;2023-08-21T03:48:32;95145.38;;;21.02;100.00
23164;BME280;31429;42.674;23.350;2023-08-21T03:49:33;95135.53;;;20.94;100.00
23164;BME280;31429;42.674;23.350;2023-08-21T03:50:34;95145.16;;;21.05;100.00
23164;BME280;31429;42.674;23.350;2023-08-21T03:51:34;95144.19;;;21.06;100.00
23164;BME280;31429;42.674;23.350;2023-08-21T03:52:35;95137.34;;;21.29;100.00
23164;BME280;31429;42.674;23.350;2023-08-21T03:53:36;95139.88;;;21.41;100.00
23164;BME280;31429;42.674;23.350;2023-08-21T03:54:36;95138.84;;;21.20;100.00
23164;BME280;31429;42.674;23.350;2023-08-21T03:55:37;95141.91;;;21.14;100.00
23164;BME280;31429;42.674;23.350;2023-08-21T03:56:38;95135.22;;;21.23;100.00
23164;BME280;31429;42.674;23.350;2023-08-21T03:57:38;95138.69;;;21.34;100.00
23164;BME280;31429;42.674;23.350;2023-08-21T03:58:40;95144.63;;;21.47;100.00
23164;BME280;31429;42.674;23.350;2023-08-21T03:59:41;95142.25;;;21.44;100.00
23164;BME280;31429;42.674;23.350;2023-08-21T04:00:42;95143.03;;;21.68;100.00
23164;BME280;31429;42.674;23.350;2023-08-21T04:01:43;95143.34;;;21.88;100.00
23164;BME280;31429;42.674;23.350;2023-08-21T04:02:43;95147.28;;;22.38;100.00
23164;BME280;31429;42.674;23.350;2023-08-21T04:03:44;95141.94;;;22.61;100.00
23164;BME280;31429;42.674;23.350;2023-08-21T04:04:45;95143.47;;;22.08;100.00
23164;BME280;31429;42.674;23.350;2023-08-21T04:05:45;95140.09;;;21.84;100.00
23164;BME280;31429;42.674;23.350;2023-08-21T04:06:46;95143.59;;;21.61;100.00
23164;BME280;31429;42.674;23.350;2023-08-21T04:07:47;95148.81;;;21.61;100.00
23164;BME280;31429;42.674;23.350;2023-08-21T04:08:48;95144.31;;;21.63;100.00
23164;BME280;31429;42.674;23.350;2023-08-21T04:09:48;95146.84;;;21.87;100.00
23164;BME280;31429;42.674;23.350;2023-08-21T04:10:49;95146.06;;;21.97;100.00
23164;BME280;31429;42.674;23.350;2023-08-21T04:11:50;95147.13;;;22.17;100.00
23164;BME280;31429;42.674;23.350;2023-08-21T04:12:50;95148.56;;;22.32;100.00
23164;BME280;31429;42.674;23.350;2023-08-21T04:13:52;95154.38;;;22.36;100.00
23164;BME280;31429;42.674;23.350;2023-08-21T04:14:53;95155.91;;;22.16;100.00
23164;BME280;31429;42.674;23.350;2023-08-21T04:15:54;95149.00;;;21.47;100.00
23164;BME280;31429;42.674;23.350;2023-08-21T04:16:56;95149.34;;;21.42;100.00
23164;BME280;31429;42.674;23.350;2023-08-21T04:17:57;95153.81;;;21.75;100.00
23164;BME280;31429;42.674;23.350;2023-08-21T04:18:58;95149.72;;;21.95;100.00
23164;BME280;31429;42.674;23.350;2023-08-21T04:19:59;95159.22;;;22.29;100.00
23164;BME280;31429;42.674;23.350;2023-08-21T04:21:00;95158.44;;;21.83;100.00
23164;BME280;31429;42.674;23.350;2023-08-21T04:22:00;95166.16;;;21.49;100.00
23164;BME280;31429;42.674;23.350;2023-08-21T04:23:01;95157.47;;;21.38;100.00
23164;BME280;31429;42.674;23.350;2023-08-21T04:24:02;95156.66;;;21.37;100.00
23164;BME280;31429;42.674;23.350;2023-08-21T04:25:03;95161.47;;;21.65;100.00
23164;BME280;31429;42.674;23.350;2023-08-21T04:26:04;95156.16;;;21.67;100.00
23164;BME280;31429;42.674;23.350;2023-08-21T04:27:05;95151.41;;;21.61;100.00
23164;BME280;31429;42.674;23.350;2023-08-21T04:28:05;95157.06;;;21.55;100.00
23164;BME280;31429;42.674;23.350;2023-08-21T04:29:09;95162.31;;;21.66;100.00
23164;BME280;31429;42.674;23.350;2023-08-21T04:30:11;95157.72;;;21.81;100.00
23164;BME280;31429;42.674;23.350;2023-08-21T04:31:12;95161.94;;;21.59;100.00
23164;BME280;31429;42.674;23.350;2023-08-21T04:32:13;95157.94;;;21.66;100.00
23164;BME280;31429;42.674;23.350;2023-08-21T04:33:13;95160.06;;;21.72;100.00
23164;BME280;31429;42.674;23.350;2023-08-21T04:34:14;95165.72;;;21.66;100.00
23164;BME280;31429;42.674;23.350;2023-08-21T04:35:15;95157.69;;;21.69;100.00
23164;BME280;31429;42.674;23.350;2023-08-21T04:36:16;95161.59;;;21.99;100.00
23164;BME280;31429;42.674;23.350;2023-08-21T04:37:17;95161.44;;;21.54;100.00
23164;BME280;31429;42.674;23.350;2023-08-21T04:38:17;95160.03;;;21.50;100.00
23164;BME280;31429;42.674;23.350;2023-08-21T04:39:18;95161.53;;;21.76;100.00
23164;BME280;31429;42.674;23.350;2023-08-21T04:40:19;95158.75;;;22.35;100.00
23164;BME280;31429;42.674;23.350;2023-08-21T04:41:39;95170.84;;;22.58;100.00
23164;BME280;31429;42.674;23.350;2023-08-21T04:42:40;95172.16;;;22.53;100.00
23164;BME280;31429;42.674;23.350;2023-08-21T04:43:41;95165.75;;;22.46;100.00
23164;BME280;31429;42.674;23.350;2023-08-21T04:44:43;95166.47;;;22.70;100.00
23164;BME280;31429;42.674;23.350;2023-08-21T04:46:09;95166.31;;;22.82;100.00
23164;BME280;31429;42.674;23.350;2023-08-21T04:47:21;95170.34;;;22.31;100.00
23164;BME280;31429;42.674;23.350;2023-08-21T04:48:22;95163.00;;;22.03;100.00
23164;BME280;31429;42.674;23.350;2023-08-21T04:49:23;95161.13;;;22.27;100.00
23164;BME280;31429;42.674;23.350;2023-08-21T04:50:23;95166.22;;;22.84;100.00
23164;BME280;31429;42.674;23.350;2023-08-21T04:51:24;95165.47;;;22.82;100.00
23164;BME280;31429;42.674;23.350;2023-08-21T04:52:25;95175.56;;;22.42;100.00
23164;BME280;31429;42.674;23.350;2023-08-21T04:53:45;95168.34;;;22.46;100.00
23164;BME280;31429;42.674;23.350;2023-08-21T04:54:47;95168.25;;;22.25;100.00
23164;BME280;31429;42.674;23.350;2023-08-21T04:55:48;95171.66;;;22.03;100.00
23164;BME280;31429;42.674;23.350;2023-08-21T04:56:48;95174.47;;;22.00;100.00
23164;BME280;31429;42.674;23.350;2023-08-21T04:57:49;95170.22;;;21.99;100.00
23164;BME280;31429;42.674;23.350;2023-08-21T04:58:50;95173.75;;;21.87;100.00
23164;BME280;31429;42.674;23.350;2023-08-21T04:59:52;95181.44;;;21.89;100.00
23164;BME280;31429;42.674;23.350;2023-08-21T05:00:53;95177.50;;;21.83;100.00
23164;BME280;31429;42.674;23.350;2023-08-21T05:01:53;95173.47;;;21.79;100.00
23164;BME280;31429;42.674;23.350;2023-08-21T05:02:54;95174.34;;;21.91;100.00
23164;BME280;31429;42.674;23.350;2023-08-21T05:03:55;95175.31;;;22.01;100.00
23164;BME280;31429;42.674;23.350;2023-08-21T05:04:55;95178.38;;;22.06;100.00
23164;BME280;31429;42.674;23.350;2023-08-21T05:05:56;95171.03;;;22.00;100.00
23164;BME280;31429;42.674;23.350;2023-08-21T05:06:57;95181.44;;;21.89;100.00
23164;BME280;31429;42.674;23.350;2023-08-21T05:07:58;95180.44;;;21.78;100.00
23164;BME280;31429;42.674;23.350;2023-08-21T05:08:58;95183.31;;;21.87;100.00
23164;BME280;31429;42.674;23.350;2023-08-21T05:09:59;95183.03;;;22.02;100.00
23164;BME280;31429;42.674;23.350;2023-08-21T05:11:01;95183.59;;;22.06;100.00
23164;BME280;31429;42.674;23.350;2023-08-21T05:12:02;95186.34;;;22.04;100.00
23164;BME280;31429;42.674;23.350;2023-08-21T05:13:06;95189.16;;;22.01;100.00
23164;BME280;31429;42.674;23.350;2023-08-21T05:14:07;95186.72;;;22.22;100.00
23164;BME280;31429;42.674;23.350;2023-08-21T05:15:09;95188.72;;;22.29;100.00
23164;BME280;31429;42.674;23.350;2023-08-21T05:16:10;95189.41;;;22.20;100.00
23164;BME280;31429;42.674;23.350;2023-08-21T05:17:11;95187.28;;;22.14;100.00
23164;BME280;31429;42.674;23.350;2023-08-21T05:18:12;95192.16;;;22.08;100.00
23164;BME280;31429;42.674;23.350;2023-08-21T05:19:12;95193.31;;;22.26;100.00
23164;BME280;31429;42.674;23.350;2023-08-21T05:20:13;95194.28;;;22.25;100.00
23164;BME280;31429;42.674;23.350;2023-08-21T05:21:34;95188.47;;;22.21;100.00
23164;BME280;31429;42.674;23.350;2023-08-21T05:22:35;95195.00;;;22.38;100.00